createdAt,value
2022-11-30T00:01:40.015Z,3.40
2022-11-30T00:06:42.752Z,3.50
2022-11-30T00:11:40.234Z,3.40
2022-11-30T00:16:37.857Z,3.30
2022-11-30T00:21:35.063Z,3.30
2022-11-30T00:26:32.281Z,3.30
2022-11-30T00:31:29.767Z,3.10
2022-11-30T00:36:27.343Z,3.10
2022-11-30T00:41:24.866Z,3.00
2022-11-30T00:46:22.038Z,3.00
2022-11-30T00:51:20.563Z,3.10
2022-11-30T00:56:17.906Z,3.10
2022-11-30T01:01:15.189Z,3.10
2022-11-30T01:06:12.521Z,3.20
2022-11-30T01:11:15.796Z,3.30
2022-11-30T01:16:17.142Z,3.30
2022-11-30T01:21:18.092Z,3.30
2022-11-30T01:26:16.572Z,3.40
2022-11-30T01:31:14.896Z,3.40
2022-11-30T01:36:17.981Z,3.30
2022-11-30T01:41:19.597Z,3.30
2022-11-30T01:46:37.145Z,3.40
2022-11-30T01:51:54.225Z,3.30
2022-11-30T01:56:58.196Z,3.30
2022-11-30T02:01:55.651Z,3.30
2022-11-30T02:06:53.146Z,3.30
2022-11-30T02:11:50.843Z,3.20
2022-11-30T02:17:18.856Z,3.20
2022-11-30T02:22:55.746Z,3.00
2022-11-30T02:28:16.043Z,3.00
2022-11-30T02:33:22.611Z,2.90
2022-11-30T02:38:22.906Z,3.00
2022-11-30T02:43:23.050Z,3.20
2022-11-30T02:48:50.694Z,3.00
2022-11-30T02:53:49.415Z,3.10
2022-11-30T02:58:47.079Z,3.10
2022-11-30T03:03:45.165Z,3.00
2022-11-30T03:08:42.607Z,3.10
2022-11-30T03:13:40.015Z,3.10
2022-11-30T03:18:38.386Z,3.30
2022-11-30T03:23:37.396Z,3.30
2022-11-30T03:28:36.582Z,3.20
2022-11-30T03:33:33.905Z,3.20
2022-11-30T03:38:40.379Z,3.30
2022-11-30T03:43:47.478Z,3.30
2022-11-30T03:48:45.046Z,3.30
2022-11-30T03:53:52.049Z,3.30
2022-11-30T03:58:49.577Z,3.30
2022-11-30T04:03:46.776Z,3.30
2022-11-30T04:08:44.607Z,3.00
2022-11-30T04:13:42.537Z,3.20
2022-11-30T04:18:40.350Z,3.40
2022-11-30T04:23:39.627Z,3.30
2022-11-30T04:28:36.824Z,3.20
2022-11-30T04:33:34.749Z,3.10
2022-11-30T04:38:37.615Z,3.30
2022-11-30T04:43:35.206Z,3.20
2022-11-30T04:48:32.869Z,3.20
2022-11-30T04:53:31.800Z,3.20
2022-11-30T04:58:30.018Z,3.10
2022-11-30T05:03:27.880Z,3.20
2022-11-30T05:08:25.660Z,3.30
2022-11-30T05:13:24.935Z,3.30
2022-11-30T05:18:26.487Z,3.30
2022-11-30T05:23:24.218Z,3.20
2022-11-30T05:28:21.570Z,3.30
2022-11-30T05:33:18.814Z,3.20
2022-11-30T05:38:16.097Z,3.30
2022-11-30T05:43:13.493Z,3.20
2022-11-30T05:48:11.166Z,3.10
2022-11-30T05:53:08.632Z,3.00
2022-11-30T05:58:06.433Z,3.00
2022-11-30T06:03:03.849Z,2.90
2022-11-30T06:08:01.207Z,3.00
2022-11-30T06:12:58.414Z,3.10
2022-11-30T06:17:56.398Z,3.30
2022-11-30T06:22:53.879Z,3.30
2022-11-30T06:27:51.657Z,3.30
2022-11-30T06:32:51.053Z,3.30
2022-11-30T06:37:48.365Z,3.20
2022-11-30T06:42:45.617Z,3.10
2022-11-30T06:47:42.873Z,3.10
2022-11-30T06:52:40.245Z,3.10
2022-11-30T06:57:37.510Z,3.00
2022-11-30T07:02:34.947Z,3.10
2022-11-30T07:07:32.388Z,3.10
2022-11-30T07:12:29.728Z,3.20
2022-11-30T07:17:27.470Z,3.30
2022-11-30T07:22:24.725Z,3.20
2022-11-30T07:27:21.970Z,3.30
2022-11-30T07:32:20.055Z,3.40
2022-11-30T07:37:17.884Z,3.20
2022-11-30T07:42:15.181Z,3.20
2022-11-30T07:47:12.414Z,3.30
2022-11-30T07:52:09.744Z,3.40
2022-11-30T07:57:07.364Z,3.50
2022-11-30T08:02:04.824Z,3.60
2022-11-30T08:07:02.160Z,3.60
2022-11-30T08:11:59.329Z,3.60
2022-11-30T08:16:56.519Z,3.50
2022-11-30T08:21:53.787Z,3.60
2022-11-30T08:26:53.217Z,3.60
2022-11-30T08:31:50.450Z,3.60
2022-11-30T08:36:51.755Z,3.70
2022-11-30T08:41:49.321Z,3.70
2022-11-30T08:46:53.877Z,3.90
2022-11-30T08:57:11.988Z,3.90
2022-11-30T09:02:17.554Z,3.80
2022-11-30T09:07:15.463Z,4.00
2022-11-30T09:12:12.775Z,4.00
2022-11-30T09:17:10.132Z,4.00
2022-11-30T09:22:07.530Z,4.00
2022-11-30T09:27:04.880Z,4.10
2022-11-30T09:32:02.221Z,4.10
2022-11-30T09:36:59.561Z,4.20
2022-11-30T09:42:27.289Z,4.30
2022-11-30T09:47:50.736Z,4.30
2022-11-30T09:52:54.995Z,4.20
2022-11-30T09:57:56.926Z,4.30
2022-11-30T10:02:58.398Z,4.40
2022-11-30T10:08:24.426Z,4.40
2022-11-30T10:13:39.483Z,4.40
2022-11-30T10:19:03.111Z,4.50
2022-11-30T10:24:26.566Z,4.50
2022-11-30T10:29:32.864Z,4.60
2022-11-30T10:34:36.125Z,4.70
2022-11-30T10:39:46.816Z,4.60
2022-11-30T10:44:46.319Z,4.60
2022-11-30T10:49:49.095Z,4.70
2022-11-30T10:54:47.074Z,4.70
2022-11-30T10:59:50.287Z,4.90
2022-11-30T11:04:47.866Z,4.80
2022-11-30T11:09:50.222Z,4.70
2022-11-30T11:14:48.301Z,4.80
2022-11-30T11:19:48.076Z,4.80
2022-11-30T11:24:47.564Z,4.80
2022-11-30T11:29:45.413Z,4.80
2022-11-30T11:34:49.407Z,4.80
2022-11-30T11:39:57.445Z,4.80
2022-11-30T11:44:57.851Z,4.80
2022-11-30T11:50:58.278Z,4.80
2022-11-30T11:55:45.757Z,4.90
2022-11-30T12:00:44.552Z,5.10
2022-11-30T12:05:48.060Z,5.30
2022-11-30T12:11:08.304Z,5.30
2022-11-30T12:16:32.272Z,5.10
2022-11-30T12:21:48.313Z,5.00
2022-11-30T12:26:49.643Z,5.00
2022-11-30T12:32:03.543Z,5.20
2022-11-30T12:37:19.551Z,5.10
2022-11-30T12:42:31.471Z,5.20
2022-11-30T12:47:47.310Z,5.00
2022-11-30T12:52:59.937Z,5.00
2022-11-30T12:58:00.163Z,5.00
2022-11-30T13:03:36.081Z,5.00
2022-11-30T13:08:48.826Z,5.00
2022-11-30T13:13:56.444Z,5.10
2022-11-30T13:19:01.869Z,5.10
2022-11-30T13:24:29.160Z,5.00
2022-11-30T13:29:53.661Z,5.10
2022-11-30T13:34:50.928Z,4.90
2022-11-30T13:39:49.925Z,4.90
2022-11-30T13:44:47.700Z,4.80
2022-11-30T13:49:45.986Z,4.70
2022-11-30T13:54:46.338Z,4.90
2022-11-30T13:59:48.855Z,4.80
2022-11-30T14:04:47.939Z,4.90
2022-11-30T14:09:58.236Z,4.90
2022-11-30T14:14:55.624Z,4.80
2022-11-30T14:20:20.018Z,4.90
2022-11-30T14:25:20.982Z,4.80
2022-11-30T14:30:21.061Z,4.60
2022-11-30T14:35:21.187Z,4.70
2022-11-30T14:40:20.287Z,4.70
2022-11-30T14:45:23.034Z,4.40
2022-11-30T14:50:24.594Z,4.30
2022-11-30T14:55:47.698Z,4.40
2022-11-30T15:00:46.745Z,4.40
2022-11-30T15:05:44.597Z,4.30
2022-11-30T15:10:42.736Z,4.20
2022-11-30T15:15:51.158Z,4.10
2022-11-30T15:20:54.073Z,4.10
2022-11-30T15:25:55.189Z,4.00
2022-11-30T15:30:58.258Z,4.10
2022-11-30T15:41:34.097Z,4.20
2022-11-30T15:46:31.764Z,4.10
2022-11-30T15:51:41.291Z,4.40
2022-11-30T15:56:38.530Z,4.30
2022-11-30T16:02:08.969Z,4.40
2022-11-30T16:07:17.580Z,4.20
2022-11-30T16:12:29.725Z,3.90
2022-11-30T16:17:28.317Z,4.00
2022-11-30T16:22:25.582Z,3.90
2022-11-30T16:27:22.859Z,3.80
2022-11-30T16:32:20.206Z,3.80
2022-11-30T16:37:17.550Z,3.80
2022-11-30T16:42:14.870Z,4.00
2022-11-30T16:47:12.135Z,4.00
2022-11-30T16:52:15.661Z,4.00
2022-11-30T16:57:13.330Z,4.10
2022-11-30T17:02:18.833Z,4.00
2022-11-30T17:07:16.210Z,4.10
2022-11-30T17:12:13.483Z,4.00
2022-11-30T17:17:10.921Z,4.00
2022-11-30T17:22:08.250Z,4.00
2022-11-30T17:27:05.969Z,3.90
2022-11-30T17:32:03.398Z,3.90
2022-11-30T17:37:00.686Z,3.90
2022-11-30T17:41:58.407Z,4.00
2022-11-30T17:46:55.668Z,4.10
2022-11-30T17:51:53.161Z,4.00
2022-11-30T17:56:52.836Z,4.20
2022-11-30T18:01:51.480Z,4.10
2022-11-30T18:06:48.884Z,4.10
2022-11-30T18:11:46.776Z,4.10
2022-11-30T18:16:44.112Z,4.00
2022-11-30T18:21:46.065Z,4.10
2022-11-30T18:26:43.377Z,4.00
2022-11-30T18:31:40.640Z,3.90
2022-11-30T18:36:38.158Z,3.90
2022-11-30T18:41:35.687Z,3.80
2022-11-30T18:46:33.254Z,3.70
2022-11-30T18:51:31.459Z,3.70
2022-11-30T18:56:31.941Z,3.60
2022-11-30T19:01:29.800Z,3.50
2022-11-30T19:06:33.281Z,3.70
2022-11-30T19:11:33.671Z,3.80
2022-11-30T19:16:31.381Z,3.80
2022-11-30T19:21:29.312Z,3.70
2022-11-30T19:26:28.626Z,3.40
2022-11-30T19:31:26.569Z,3.40
2022-11-30T19:36:26.438Z,3.40
2022-11-30T19:41:23.901Z,3.50
2022-11-30T19:46:21.650Z,3.60
2022-11-30T19:51:19.055Z,3.50
2022-11-30T19:56:18.170Z,3.60
2022-11-30T20:01:17.258Z,3.50
2022-11-30T20:06:14.687Z,3.60
2022-11-30T20:11:13.870Z,3.40
2022-11-30T20:16:14.367Z,3.40
2022-11-30T20:21:17.243Z,3.40
2022-11-30T20:26:23.233Z,3.50
2022-11-30T20:31:22.450Z,3.60
2022-11-30T20:36:21.029Z,3.60
2022-11-30T20:41:21.322Z,3.50
2022-11-30T20:46:28.876Z,3.50
2022-11-30T20:51:32.595Z,3.50
2022-11-30T20:56:30.579Z,3.40
2022-11-30T21:01:28.049Z,3.50
2022-11-30T21:06:25.746Z,3.70
2022-11-30T21:11:23.412Z,3.60
2022-11-30T21:16:27.605Z,3.70
2022-11-30T21:21:34.399Z,3.60
2022-11-30T21:26:37.208Z,3.60
2022-11-30T21:31:35.819Z,3.60
2022-11-30T21:36:33.737Z,3.50
2022-11-30T21:41:31.170Z,3.80
2022-11-30T21:46:28.488Z,3.80
2022-11-30T21:51:28.113Z,3.80
2022-11-30T21:56:32.555Z,3.60
2022-11-30T22:01:33.607Z,3.60
2022-11-30T22:06:32.431Z,3.60
2022-11-30T22:11:31.412Z,3.80
2022-11-30T22:16:35.572Z,3.80
2022-11-30T22:21:34.170Z,3.90
2022-11-30T22:26:37.237Z,3.80
2022-11-30T22:31:38.561Z,3.80
2022-11-30T22:36:38.266Z,3.50
2022-11-30T22:41:36.116Z,3.30
2022-11-30T22:46:36.068Z,3.20
2022-11-30T22:51:34.407Z,3.30
2022-11-30T22:56:34.608Z,3.40
2022-11-30T23:01:38.095Z,3.70
2022-11-30T23:06:37.015Z,3.50
2022-11-30T23:11:35.079Z,3.30
2022-11-30T23:16:32.668Z,3.30
2022-11-30T23:21:37.363Z,3.20
2022-11-30T23:26:39.095Z,3.20
2022-11-30T23:31:39.305Z,3.30
2022-11-30T23:36:38.812Z,3.40
2022-11-30T23:41:36.309Z,3.30
2022-11-30T23:46:33.716Z,3.20
2022-11-30T23:51:31.003Z,3.10
2022-11-30T23:56:28.394Z,3.30
